Airfield :
LOGIN :

Register | Disclaimer

   EN    FR    IT 

 










Legend :    VFR   Marginal VFR   IFR   Intensive IFR   Very Intensive IFR
Visi :
Ceiling :
>= 8 km
>= 3000ft
5 to 8 km
1000 to 3000 ft
1500m to 5 km
500 to 1000 ft
800 to 1500m
200 to 500 ft
< 800m
< 200 ft
Symbols :   Thunderstorms  Fog  Heavy snow  Heavy precipitations  Wind > 20 kt
SIGMETs :     Misc.  Thunderstorms  Icing  Turbulence  Mountain Waves  Volcanic Ashes






- Airport Elevation : 2302 ft


LEAB - Albacete

CURRENT METAR :
  • 041300Z VRB03KT CAVOK 25/08 Q1022 NOSIG

EXPIRED METARs :
  • 041230Z VRB03KT CAVOK 25/08 Q1023 NOSIG
  • 041200Z VRB03KT CAVOK 24/11 Q1023 NOSIG
  • 041130Z VRB02KT CAVOK 24/12 Q1023 NOSIG
  • 041100Z 14004KT 090V200 CAVOK 23/12 Q1023 NOSIG
  • 041030Z 20004KT 150V310 CAVOK 23/09 Q1023 NOSIG

TAF TAF LEAB
Valid from the 04 at 12:00 until the 05 at 12:00 UTC


041100Z 0412/0512 VRB05KT CAVOK TX31/0415Z TN16/0506Z
BECMG 0418/0420 15010KT
PROB30
TEMPO 0502/0507 3000 BR BKN008



MET'MAP, your aeronautical weather chart ! - Copyright ORBIFLY December 2007 - Disclaimer

ORBIFLY MET'MAP TEAM :

Programming & Development : Alexandra Zaïnal
Original concept : Baudouin d'Aumeries
Technical & hardware support : Manuel Goepfert
Assistance : Marc-Olivier Méhu




SOURCES & CREDITS :

   NOAA